createdAt,value
2022-10-18T00:01:56.965Z,60.57
2022-10-18T00:07:00.506Z,60.66
2022-10-18T00:12:03.664Z,60.64
2022-10-18T00:17:06.377Z,60.65
2022-10-18T00:22:09.030Z,60.70
2022-10-18T00:27:11.942Z,60.82
2022-10-18T00:32:14.476Z,61.11
2022-10-18T00:37:17.617Z,60.80
2022-10-18T00:42:22.511Z,60.85
2022-10-18T00:47:25.019Z,61.03
2022-10-18T00:52:34.059Z,61.02
2022-10-18T00:57:38.228Z,60.83
2022-10-18T01:02:43.692Z,60.96
2022-10-18T01:07:52.146Z,60.80
2022-10-18T01:13:12.446Z,60.80
2022-10-18T01:18:39.736Z,61.15
2022-10-18T01:24:12.134Z,61.22
2022-10-18T01:29:29.570Z,61.35
2022-10-18T01:34:35.175Z,61.15
2022-10-18T01:39:39.937Z,61.14
2022-10-18T01:44:44.883Z,61.47
2022-10-18T01:49:47.472Z,61.75
2022-10-18T01:54:50.367Z,61.81
2022-10-18T02:00:06.744Z,61.83
2022-10-18T02:05:41.074Z,61.72
2022-10-18T02:10:48.557Z,61.98
2022-10-18T02:15:56.216Z,61.61
2022-10-18T02:21:00.329Z,61.96
2022-10-18T02:26:03.229Z,61.95
2022-10-18T02:31:31.224Z,62.31
2022-10-18T02:36:42.069Z,62.29
2022-10-18T02:41:44.503Z,62.70
2022-10-18T02:46:47.647Z,62.99
2022-10-18T02:51:50.089Z,63.19
2022-10-18T02:56:53.083Z,62.88
2022-10-18T03:01:55.622Z,62.85
2022-10-18T03:06:58.188Z,62.58
2022-10-18T03:12:00.703Z,63.05
2022-10-18T03:17:04.836Z,63.02
2022-10-18T03:22:07.451Z,63.35
2022-10-18T03:27:09.905Z,63.70
2022-10-18T03:32:12.318Z,63.41
2022-10-18T03:37:14.709Z,63.71
2022-10-18T03:42:17.237Z,63.68
2022-10-18T03:47:19.693Z,63.57
2022-10-18T03:52:22.110Z,63.93
2022-10-18T03:57:24.548Z,64.08
2022-10-18T04:02:27.669Z,63.99
2022-10-18T04:07:30.377Z,63.88
2022-10-18T04:12:33.444Z,63.76
2022-10-18T04:17:36.656Z,63.33
2022-10-18T04:22:39.084Z,64.12
2022-10-18T04:27:41.553Z,64.13
2022-10-18T04:32:44.117Z,63.91
2022-10-18T04:37:46.750Z,63.70
2022-10-18T04:42:49.537Z,63.60
2022-10-18T04:47:51.950Z,63.43
2022-10-18T04:52:54.394Z,63.35
2022-10-18T04:57:57.109Z,63.25
2022-10-18T05:02:59.527Z,63.25
2022-10-18T05:08:01.962Z,63.12
2022-10-18T05:13:04.465Z,62.99
2022-10-18T05:18:07.712Z,62.92
2022-10-18T05:23:10.911Z,62.97
2022-10-18T05:28:38.007Z,62.82
2022-10-18T05:33:36.338Z,62.75
2022-10-18T05:38:42.701Z,62.77
2022-10-18T05:43:45.531Z,62.73
2022-10-18T05:48:51.624Z,62.79
2022-10-18T05:53:54.688Z,62.67
2022-10-18T05:58:57.361Z,62.55
2022-10-18T06:03:59.847Z,62.70
2022-10-18T06:09:03.510Z,62.58
2022-10-18T06:14:07.971Z,62.54
2022-10-18T06:19:12.072Z,62.74
2022-10-18T06:24:14.509Z,62.38
2022-10-18T06:29:16.950Z,61.98
2022-10-18T06:34:19.469Z,61.54
2022-10-18T06:39:23.331Z,61.37
2022-10-18T06:44:25.975Z,61.34
2022-10-18T06:49:28.393Z,61.14
2022-10-18T06:54:30.797Z,61.09
2022-10-18T06:59:34.121Z,60.92
2022-10-18T07:04:36.576Z,61.07
2022-10-18T07:09:39.368Z,61.09
2022-10-18T07:14:41.775Z,61.02
2022-10-18T07:19:44.132Z,60.77
2022-10-18T07:24:46.809Z,60.38
2022-10-18T07:29:49.590Z,60.46
2022-10-18T07:34:52.180Z,60.49
2022-10-18T07:39:54.614Z,60.97
2022-10-18T07:44:57.179Z,61.04
2022-10-18T07:49:59.577Z,60.94
2022-10-18T07:55:02.017Z,60.96
2022-10-18T08:00:05.029Z,61.26
2022-10-18T08:05:07.794Z,61.17
2022-10-18T08:10:10.210Z,61.02
2022-10-18T08:15:12.880Z,61.05
2022-10-18T08:20:29.798Z,61.17
2022-10-18T08:30:38.126Z,62.20
2022-10-18T08:35:40.561Z,62.54
2022-10-18T08:40:44.368Z,62.34
2022-10-18T08:45:46.939Z,62.02
2022-10-18T08:50:50.838Z,61.82
2022-10-18T08:56:21.091Z,61.25
2022-10-18T09:07:10.986Z,60.93
2022-10-18T09:12:13.369Z,61.39
2022-10-18T09:17:34.419Z,62.11
2022-10-18T09:22:41.467Z,62.68
2022-10-18T09:27:52.796Z,62.49
2022-10-18T09:33:05.768Z,62.19
2022-10-18T09:38:12.526Z,61.54
2022-10-18T09:43:23.232Z,61.56
2022-10-18T09:48:37.206Z,61.45
2022-10-18T09:54:21.960Z,61.67
2022-10-18T09:59:34.059Z,61.62
2022-10-18T10:04:36.425Z,60.99
2022-10-18T10:09:48.104Z,61.16
2022-10-18T10:14:50.504Z,61.52
2022-10-18T10:19:58.872Z,61.05
2022-10-18T10:25:02.012Z,60.66
2022-10-18T10:30:22.839Z,60.46
2022-10-18T10:35:59.383Z,60.53
2022-10-18T10:41:02.137Z,60.88
2022-10-18T10:46:12.920Z,60.58
2022-10-18T10:51:27.287Z,60.49
2022-10-18T10:56:33.904Z,60.65
2022-10-18T11:01:37.252Z,60.67
2022-10-18T11:06:44.791Z,60.42
2022-10-18T11:11:56.654Z,60.94
2022-10-18T11:17:23.459Z,61.05
2022-10-18T11:22:27.770Z,61.28
2022-10-18T11:27:42.884Z,61.21
2022-10-18T11:33:14.614Z,60.75
2022-10-18T11:38:40.067Z,60.96
2022-10-18T11:44:02.944Z,60.83
2022-10-18T11:49:15.728Z,61.12
2022-10-18T11:54:30.073Z,61.64
2022-10-18T11:59:42.393Z,62.09
2022-10-18T12:05:05.946Z,62.20
2022-10-18T12:10:26.231Z,62.36
2022-10-18T12:15:41.135Z,62.38
2022-10-18T12:20:49.515Z,61.93
2022-10-18T12:25:56.834Z,61.23
2022-10-18T12:31:20.898Z,61.43
2022-10-18T12:36:44.909Z,61.43
2022-10-18T12:41:48.475Z,61.63
2022-10-18T12:46:55.659Z,61.42
2022-10-18T12:52:06.645Z,61.39
2022-10-18T12:57:23.238Z,61.68
2022-10-18T13:02:28.114Z,62.30
2022-10-18T13:07:32.231Z,62.41
2022-10-18T13:12:55.089Z,62.56
2022-10-18T13:18:10.075Z,62.52
2022-10-18T13:23:33.876Z,63.15
2022-10-18T13:29:02.770Z,62.87
2022-10-18T13:34:24.033Z,62.82
2022-10-18T13:39:27.742Z,63.12
2022-10-18T13:44:37.839Z,63.14
2022-10-18T13:49:40.420Z,63.07
2022-10-18T13:55:07.087Z,62.82
2022-10-18T14:00:49.063Z,62.87
2022-10-18T14:05:56.812Z,62.94
2022-10-18T14:11:24.212Z,63.16
2022-10-18T14:16:53.534Z,62.76
2022-10-18T14:22:19.783Z,62.51
2022-10-18T14:27:26.791Z,62.21
2022-10-18T14:32:32.059Z,62.16
2022-10-18T14:37:36.501Z,62.25
2022-10-18T14:42:50.803Z,62.23
2022-10-18T14:47:53.311Z,62.12
2022-10-18T14:52:55.944Z,62.63
2022-10-18T14:57:59.274Z,63.04
2022-10-18T15:03:05.135Z,63.12
2022-10-18T15:08:09.613Z,63.20
2022-10-18T15:13:13.625Z,63.58
2022-10-18T15:18:24.839Z,63.48
2022-10-18T15:23:31.916Z,63.78
2022-10-18T15:28:40.063Z,63.76
2022-10-18T15:33:42.584Z,63.85
2022-10-18T15:38:47.604Z,64.19
2022-10-18T15:44:10.274Z,64.07
2022-10-18T15:49:47.316Z,63.81
2022-10-18T15:54:49.679Z,63.70
2022-10-18T16:00:02.172Z,63.52
2022-10-18T16:05:05.347Z,63.53
2022-10-18T16:10:14.538Z,63.63
2022-10-18T16:15:17.113Z,63.37
2022-10-18T16:20:24.920Z,63.03
2022-10-18T16:25:27.535Z,63.08
2022-10-18T16:30:32.954Z,63.21
2022-10-18T16:35:35.856Z,63.50
2022-10-18T16:40:41.168Z,63.60
2022-10-18T16:45:44.598Z,63.92
2022-10-18T16:50:47.930Z,63.95
2022-10-18T16:55:57.301Z,64.12
2022-10-18T17:01:01.894Z,64.12
2022-10-18T17:06:13.358Z,64.07
2022-10-18T17:11:16.920Z,64.02
2022-10-18T17:16:38.854Z,64.21
2022-10-18T17:21:41.620Z,64.23
2022-10-18T17:26:44.353Z,64.33
2022-10-18T17:31:47.853Z,64.01
2022-10-18T17:36:50.338Z,64.17
2022-10-18T17:41:52.806Z,64.20
2022-10-18T17:46:56.292Z,64.19
2022-10-18T17:52:01.150Z,64.11
2022-10-18T17:57:05.736Z,64.00
2022-10-18T18:02:10.799Z,64.18
2022-10-18T18:07:13.519Z,63.94
2022-10-18T18:12:16.280Z,63.74
2022-10-18T18:17:28.568Z,63.57
2022-10-18T18:22:41.651Z,63.53
2022-10-18T18:27:45.907Z,63.43
2022-10-18T18:32:48.733Z,63.61
2022-10-18T18:37:51.272Z,63.63
2022-10-18T18:43:12.139Z,63.48
2022-10-18T18:48:19.094Z,63.51
2022-10-18T18:53:25.989Z,63.31
2022-10-18T18:58:33.909Z,63.24
2022-10-18T19:03:38.589Z,63.17
2022-10-18T19:08:44.562Z,62.91
2022-10-18T19:13:48.749Z,63.15
2022-10-18T19:18:52.073Z,63.08
2022-10-18T19:23:56.497Z,62.90
2022-10-18T19:29:07.334Z,62.27
2022-10-18T19:34:12.577Z,62.01
2022-10-18T19:39:18.785Z,61.82
2022-10-18T19:44:23.051Z,61.47
2022-10-18T19:49:26.177Z,61.29
2022-10-18T19:54:28.657Z,61.15
2022-10-18T19:59:31.273Z,61.23
2022-10-18T20:04:35.001Z,61.17
2022-10-18T20:09:38.175Z,61.39
2022-10-18T20:14:40.678Z,61.44
2022-10-18T20:19:43.589Z,61.29
2022-10-18T20:24:46.601Z,61.05
2022-10-18T20:29:51.546Z,61.17
2022-10-18T20:34:54.292Z,61.15
2022-10-18T20:39:56.737Z,61.41
2022-10-18T20:44:59.288Z,61.62
2022-10-18T20:50:02.458Z,61.98
2022-10-18T20:55:06.489Z,62.20
2022-10-18T21:00:11.516Z,62.09
2022-10-18T21:05:16.430Z,62.40
2022-10-18T21:10:18.838Z,62.70
2022-10-18T21:15:21.291Z,62.75
2022-10-18T21:20:24.816Z,62.77
2022-10-18T21:25:27.190Z,62.94
2022-10-18T21:30:29.973Z,63.07
2022-10-18T21:35:38.917Z,62.97
2022-10-18T21:40:44.457Z,62.68
2022-10-18T21:45:46.825Z,62.73
2022-10-18T21:50:50.034Z,62.89
2022-10-18T21:55:52.433Z,62.87
2022-10-18T22:00:54.894Z,62.63
2022-10-18T22:06:07.843Z,62.55
2022-10-18T22:11:12.338Z,62.61
2022-10-18T22:16:16.357Z,62.46
2022-10-18T22:21:20.140Z,62.46
2022-10-18T22:26:28.874Z,62.26
2022-10-18T22:31:34.783Z,61.92
2022-10-18T22:36:38.077Z,61.89
2022-10-18T22:41:41.242Z,62.02
2022-10-18T22:46:43.676Z,62.11
2022-10-18T22:51:46.123Z,61.84
2022-10-18T22:56:48.531Z,61.81
2022-10-18T23:01:51.200Z,62.62
2022-10-18T23:06:53.631Z,63.01
2022-10-18T23:11:56.120Z,63.13
2022-10-18T23:16:58.613Z,63.11
2022-10-18T23:22:01.021Z,63.03
2022-10-18T23:27:03.494Z,62.97
2022-10-18T23:32:05.932Z,63.08
2022-10-18T23:37:08.685Z,63.16
2022-10-18T23:42:11.279Z,63.18
2022-10-18T23:47:14.842Z,63.10
2022-10-18T23:52:17.304Z,63.15
2022-10-18T23:57:19.663Z,63.78
